Time;durP1;ratioP1;P1;durP2;ratioP2;P2;SDS_P1;SDS_P2;PMS_P1;PMS_P2;Temp;Humidity;BMP_temperature;BMP_pressure;BME280_temperature;BME280_humidity;BME280_pressure;Samples;Min_cycle;Max_cycle;Signal;HPM_P1;HPM_P2
2023/11/10 00:01:28;;;;;;;1.90;0.65;;;;;;;8.24;49.91;99448.09;5012266;28;20056;-74
2023/11/10 00:03:58;;;;;;;1.48;0.70;;;;;;;8.26;50.15;99452.38;5029821;28;20666;-74
2023/11/10 00:06:26;;;;;;;2.10;0.70;;;;;;;8.25;50.26;99442.50;5029880;28;20454;-74
2023/11/10 00:08:55;;;;;;;2.15;0.60;;;;;;;8.26;50.11;99437.88;5029990;28;20088;-74
2023/11/10 00:11:26;;;;;;;2.28;0.70;;;;;;;8.25;49.98;99436.19;5012447;28;20053;-73
2023/11/10 00:13:54;;;;;;;3.35;0.77;;;;;;;8.26;50.42;99433.28;5029604;28;20612;-73
2023/11/10 00:16:43;;;;;;;2.63;0.85;;;;;;;8.24;50.23;99427.16;5029184;28;20115;-74
2023/11/10 00:19:13;;;;;;;1.73;0.60;;;;;;;8.27;50.03;99420.53;5029131;28;20133;-74
2023/11/10 00:21:41;;;;;;;4.13;0.70;;;;;;;8.26;50.37;99435.16;5029717;28;20092;-74
2023/11/10 00:24:09;;;;;;;1.00;0.60;;;;;;;8.25;50.48;99426.16;5012310;28;20068;-74
2023/11/10 00:26:37;;;;;;;1.60;0.60;;;;;;;8.25;50.24;99417.97;5029521;28;20088;-74
2023/11/10 00:29:05;;;;;;;1.67;0.63;;;;;;;8.25;50.25;99417.13;5029613;28;20042;-74
2023/11/10 00:31:33;;;;;;;1.73;0.65;;;;;;;8.24;50.59;99413.53;5029595;28;20583;-74
2023/11/10 00:34:01;;;;;;;1.20;0.65;;;;;;;8.23;50.71;99402.78;5011451;28;20041;-73
2023/11/10 00:36:30;;;;;;;1.90;0.68;;;;;;;8.25;50.60;99409.81;5011474;28;20515;-74
2023/11/10 00:38:58;;;;;;;1.35;0.60;;;;;;;8.24;50.47;99404.50;5012096;28;20424;-73
2023/11/10 00:41:25;;;;;;;2.33;0.90;;;;;;;8.25;50.63;99400.78;5029145;28;20050;-74
2023/11/10 00:43:53;;;;;;;2.35;1.00;;;;;;;8.25;50.75;99393.44;5011822;28;20152;-74
2023/11/10 00:46:21;;;;;;;2.20;1.05;;;;;;;8.26;50.82;99388.81;5029204;28;20497;-72
2023/11/10 00:48:49;;;;;;;2.83;1.30;;;;;;;8.27;50.68;99401.44;5028759;28;20052;-74
2023/11/10 00:51:17;;;;;;;3.03;1.60;;;;;;;8.27;51.10;99401.44;5029550;28;20447;-73
2023/11/10 00:53:46;;;;;;;3.00;1.10;;;;;;;8.29;50.66;99407.59;5029403;28;20056;-74
2023/11/10 00:56:14;;;;;;;1.98;0.80;;;;;;;8.27;50.61;99405.03;5011357;28;20073;-74
2023/11/10 00:58:42;;;;;;;2.22;1.10;;;;;;;8.28;50.94;99403.16;5011605;28;20049;-74
2023/11/10 01:01:10;;;;;;;2.15;0.65;;;;;;;8.28;51.13;99404.03;5011130;28;20069;-74
2023/11/10 01:03:38;;;;;;;1.70;0.70;;;;;;;8.28;51.25;99403.16;5011625;28;20144;-74
2023/11/10 01:06:06;;;;;;;1.40;0.80;;;;;;;8.28;50.99;99401.28;5029711;28;20083;-74
2023/11/10 01:08:34;;;;;;;2.88;0.95;;;;;;;8.28;51.27;99394.97;5028780;28;20076;-74
2023/11/10 01:11:04;;;;;;;1.88;0.90;;;;;;;8.29;50.97;99391.25;5028388;28;20061;-74
2023/11/10 01:13:34;;;;;;;1.65;1.10;;;;;;;8.28;51.08;99389.53;5011489;28;20197;-74
2023/11/10 01:16:02;;;;;;;1.95;0.82;;;;;;;8.29;50.84;99391.25;5011040;28;20739;-74
2023/11/10 01:18:31;;;;;;;1.90;0.65;;;;;;;8.28;51.00;99384.94;5028910;28;20118;-74
2023/11/10 01:20:59;;;;;;;3.72;0.90;;;;;;;8.28;50.89;99378.63;5029227;28;20524;-74
2023/11/10 01:23:27;;;;;;;1.52;0.80;;;;;;;8.29;50.94;99391.25;5011247;28;20422;-74
2023/11/10 01:25:55;;;;;;;1.77;0.88;;;;;;;8.28;50.92;99382.22;5011083;28;20124;-74
2023/11/10 01:28:24;;;;;;;1.98;0.88;;;;;;;8.29;50.74;99374.91;5010810;28;20092;-75
2023/11/10 01:30:52;;;;;;;2.42;1.00;;;;;;;8.27;51.17;99382.38;5028673;28;20058;-74
2023/11/10 01:33:20;;;;;;;3.80;1.00;;;;;;;8.27;51.24;99371.47;5011175;28;20543;-72
2023/11/10 01:35:50;;;;;;;2.17;0.90;;;;;;;8.28;50.78;99375.91;5029292;28;20077;-74
2023/11/10 01:38:18;;;;;;;1.70;1.05;;;;;;;8.28;51.23;99379.50;5011042;28;20045;-74
2023/11/10 01:40:46;;;;;;;2.03;0.90;;;;;;;8.27;51.02;99375.03;5011462;28;20707;-74
2023/11/10 01:43:16;;;;;;;2.30;0.98;;;;;;;8.29;50.87;99380.34;5011177;28;20469;-73
2023/11/10 01:45:45;;;;;;;2.95;0.90;;;;;;;8.28;51.10;99373.19;5010201;28;20048;-74
2023/11/10 01:48:14;;;;;;;1.73;0.88;;;;;;;8.28;50.99;99365.84;5011632;28;20481;-73
2023/11/10 01:50:43;;;;;;;2.65;1.00;;;;;;;8.28;50.65;99379.50;5010931;28;20049;-73
2023/11/10 01:53:11;;;;;;;3.25;1.00;;;;;;;8.27;50.70;99369.59;5010983;28;20053;-74
2023/11/10 01:55:43;;;;;;;4.10;1.00;;;;;;;8.29;50.98;99372.16;5028280;28;20748;-73
2023/11/10 01:58:12;;;;;;;1.83;0.85;;;;;;;8.28;50.94;99362.28;5010866;28;20129;-72
2023/11/10 02:00:40;;;;;;;2.40;0.90;;;;;;;8.28;50.52;99365.84;5028607;28;20045;-74
2023/11/10 02:03:10;;;;;;;3.65;0.70;;;;;;;8.29;50.70;99364.84;5011257;28;20041;-73
2023/11/10 02:05:38;;;;;;;2.33;0.70;;;;;;;8.28;51.08;99363.13;5010232;28;20056;-73
2023/11/10 02:08:10;;;;;;;2.28;0.90;;;;;;;8.30;50.96;99360.25;5014063;28;20187;-72
2023/11/10 02:10:39;;;;;;;3.22;1.38;;;;;;;8.29;50.60;99358.53;5014279;28;20041;-73
2023/11/10 02:13:07;;;;;;;2.28;0.98;;;;;;;8.29;50.99;99353.09;5014379;28;20034;-73
2023/11/10 02:15:35;;;;;;;2.20;0.85;;;;;;;8.29;50.97;99355.81;5014301;28;20060;-73
2023/11/10 02:18:03;;;;;;;3.03;1.00;;;;;;;8.29;50.67;99350.38;5013807;28;20045;-74
2023/11/10 02:20:32;;;;;;;1.90;0.80;;;;;;;8.29;50.77;99348.50;5013710;28;20064;-74
2023/11/10 02:23:00;;;;;;;2.17;0.68;;;;;;;8.27;50.60;99346.94;5014153;28;20054;-72
2023/11/10 02:25:30;;;;;;;1.40;0.80;;;;;;;8.28;50.55;99352.22;5032113;28;20069;-74
2023/11/10 02:27:58;;;;;;;2.38;1.00;;;;;;;8.26;50.93;99348.78;5013617;28;20038;-72
2023/11/10 02:30:26;;;;;;;2.40;1.08;;;;;;;8.25;50.90;99347.13;5031359;28;20564;-74
2023/11/10 02:32:54;;;;;;;2.33;0.90;;;;;;;8.24;50.60;99345.41;5014519;28;20053;-73
2023/11/10 02:35:22;;;;;;;1.88;0.70;;;;;;;8.24;50.70;99347.25;5013788;28;20051;-73
2023/11/10 02:37:50;;;;;;;1.88;0.90;;;;;;;8.22;50.46;99344.69;5031557;28;20120;-73
2023/11/10 02:40:18;;;;;;;1.60;0.80;;;;;;;8.21;50.55;99337.53;5031012;28;20095;-73
2023/11/10 02:42:47;;;;;;;2.65;1.27;;;;;;;8.23;50.98;99340.09;5013744;28;20033;-72
2023/11/10 02:45:16;;;;;;;2.25;0.80;;;;;;;8.21;50.92;99344.84;5031727;28;20077;-73
2023/11/10 02:47:44;;;;;;;1.98;0.88;;;;;;;8.20;50.72;99343.13;5013972;28;20058;-73
2023/11/10 02:50:12;;;;;;;1.77;0.88;;;;;;;8.20;51.14;99343.97;5031099;28;20045;-72
2023/11/10 02:52:40;;;;;;;1.75;1.02;;;;;;;8.18;50.71;99351.44;5013582;28;20057;-73
2023/11/10 02:55:09;;;;;;;3.03;0.80;;;;;;;8.20;50.61;99351.28;5031196;28;20414;-73
2023/11/10 02:57:37;;;;;;;2.30;0.88;;;;;;;8.20;51.07;99348.56;5031492;28;20073;-72
2023/11/10 03:00:09;;;;;;;2.47;0.85;;;;;;;8.21;50.61;99351.16;5031492;28;20042;-72
2023/11/10 03:02:37;;;;;;;4.00;1.15;;;;;;;8.17;50.94;99352.50;5012672;28;20144;-73
2023/11/10 03:05:06;;;;;;;1.60;0.80;;;;;;;8.19;51.11;99347.72;5030878;28;20041;-74
2023/11/10 03:07:34;;;;;;;1.38;0.70;;;;;;;8.19;50.71;99334.09;5030915;28;20056;-74
2023/11/10 03:10:02;;;;;;;3.17;0.88;;;;;;;8.20;50.93;99334.94;5013199;28;20069;-74
2023/11/10 03:12:31;;;;;;;3.45;1.15;;;;;;;8.20;50.86;99330.34;5013230;28;20049;-72
2023/11/10 03:14:59;;;;;;;2.35;1.00;;;;;;;8.21;50.95;99331.22;5025797;28;20080;-74
2023/11/10 03:17:29;;;;;;;2.40;0.80;;;;;;;8.21;50.58;99325.75;5021816;28;20049;-74
2023/11/10 03:19:57;;;;;;;1.83;0.50;;;;;;;8.20;50.84;99327.63;5030865;28;20042;-74
2023/11/10 03:22:26;;;;;;;2.17;0.88;;;;;;;8.22;51.01;99332.94;5030584;28;20535;-74
2023/11/10 03:24:54;;;;;;;2.13;0.70;;;;;;;8.22;50.96;99331.06;5030859;28;20575;-74
2023/11/10 03:27:22;;;;;;;1.77;0.68;;;;;;;8.23;50.61;99334.66;5024302;23;20496;-77
2023/11/10 03:29:51;;;;;;;2.13;0.70;;;;;;;8.24;50.95;99328.19;4997294;28;20046;-76
2023/11/10 03:32:19;;;;;;;3.03;1.00;;;;;;;8.24;50.63;99328.19;4987983;28;20473;-76
2023/11/10 03:34:49;;;;;;;2.47;0.85;;;;;;;8.26;50.95;99328.84;5006000;28;20051;-77
2023/11/10 03:37:17;;;;;;;1.70;0.65;;;;;;;8.25;51.11;99333.50;5010271;28;20141;-75
2023/11/10 03:39:45;;;;;;;4.72;0.80;;;;;;;8.27;51.28;99327.84;4997149;28;20049;-76
2023/11/10 03:42:14;;;;;;;1.10;0.60;;;;;;;8.28;51.06;99324.13;4996689;28;20046;-75
2023/11/10 03:44:42;;;;;;;2.47;0.70;;;;;;;8.28;51.03;99332.28;4999888;28;20144;-76
2023/11/10 03:47:10;;;;;;;3.22;0.70;;;;;;;8.29;51.14;99328.56;4989058;28;20073;-75
2023/11/10 03:49:40;;;;;;;1.90;0.85;;;;;;;8.29;51.20;99337.59;4987432;28;20136;-75
2023/11/10 03:52:09;;;;;;;3.08;0.95;;;;;;;8.30;50.75;99325.69;4986086;28;20046;-75
2023/11/10 03:54:37;;;;;;;3.85;0.88;;;;;;;8.29;51.01;99326.69;4988372;28;20082;-76
2023/11/10 03:57:05;;;;;;;2.40;0.68;;;;;;;8.30;51.01;99335.72;4986727;28;20053;-76
2023/11/10 03:59:33;;;;;;;3.13;1.08;;;;;;;8.29;50.91;99321.25;4987987;28;20052;-74
2023/11/10 04:02:01;;;;;;;1.30;0.70;;;;;;;8.30;50.82;99325.69;4984709;28;20104;-76
2023/11/10 04:04:31;;;;;;;3.05;0.70;;;;;;;8.31;51.03;99334.72;4986263;28;20050;-75
2023/11/10 04:07:00;;;;;;;2.63;0.90;;;;;;;8.31;51.19;99345.63;5009319;28;20046;-74
2023/11/10 04:09:29;;;;;;;1.83;0.90;;;;;;;8.33;50.92;99346.31;4985428;28;20648;-75
2023/11/10 04:11:57;;;;;;;2.78;1.00;;;;;;;8.32;50.73;99340.03;4986757;28;20125;-75
2023/11/10 04:14:25;;;;;;;3.33;1.05;;;;;;;8.32;50.71;99337.28;4986621;28;20054;-76
2023/11/10 04:16:54;;;;;;;2.88;0.80;;;;;;;8.33;51.12;99349.06;4985917;28;20805;-76
2023/11/10 04:19:22;;;;;;;2.67;0.93;;;;;;;8.33;50.82;99351.78;4986959;28;20049;-76
2023/11/10 04:21:50;;;;;;;2.65;0.95;;;;;;;8.33;50.89;99346.31;4986089;28;20120;-75
2023/11/10 04:24:20;;;;;;;3.63;1.00;;;;;;;8.33;50.57;99343.59;4986376;28;20049;-75
2023/11/10 04:26:50;;;;;;;3.13;0.88;;;;;;;8.36;50.69;99350.59;4985558;28;20864;-77
2023/11/10 04:29:18;;;;;;;3.63;1.10;;;;;;;8.33;50.54;99347.19;4983931;28;20061;-75
2023/11/10 04:31:46;;;;;;;2.75;1.10;;;;;;;8.33;50.92;99349.91;4984393;28;20461;-76
2023/11/10 04:34:14;;;;;;;2.05;0.80;;;;;;;8.34;50.58;99348.03;4985193;28;20062;-76
2023/11/10 04:36:45;;;;;;;2.50;0.88;;;;;;;8.33;50.85;99340.88;4987412;28;20109;-77
2023/11/10 04:39:15;;;;;;;2.97;1.00;;;;;;;8.33;50.85;99330.84;4986635;28;20045;-76
2023/11/10 04:41:43;;;;;;;2.63;0.98;;;;;;;8.33;50.73;99341.75;5004762;28;20552;-76
2023/11/10 04:44:12;;;;;;;3.47;1.00;;;;;;;8.36;50.48;99340.53;4990434;28;20073;-75
2023/11/10 04:46:42;;;;;;;3.75;1.10;;;;;;;8.34;50.60;99337.13;4991224;28;20047;-77
2023/11/10 04:49:11;;;;;;;2.55;1.02;;;;;;;8.36;50.69;99336.97;4990434;28;20061;-77
2023/11/10 04:51:39;;;;;;;2.08;0.90;;;;;;;8.36;50.59;99339.69;4988952;28;20544;-77
2023/11/10 04:54:07;;;;;;;3.95;1.00;;;;;;;8.37;50.55;99333.22;4991076;28;20505;-77
2023/11/10 04:56:43;;;;;;;4.05;1.00;;;;;;;8.40;50.47;99332.91;4989808;28;20233;-77
2023/11/10 04:59:14;;;;;;;2.15;0.80;;;;;;;8.38;50.38;99337.66;4990746;28;20531;-76
2023/11/10 05:01:42;;;;;;;2.42;0.80;;;;;;;8.36;50.19;99342.41;4989440;28;20051;-75
2023/11/10 05:04:12;;;;;;;3.65;1.00;;;;;;;8.37;50.21;99342.25;4990476;28;20049;-75
2023/11/10 05:06:41;;;;;;;1.73;0.73;;;;;;;8.37;50.14;99345.00;4990444;28;20054;-76
2023/11/10 05:09:09;;;;;;;1.80;0.70;;;;;;;8.37;50.15;99344.13;5000377;28;20583;-74
2023/11/10 05:11:37;;;;;;;1.75;0.80;;;;;;;8.37;50.18;99341.41;5002168;28;20049;-78
2023/11/10 05:14:05;;;;;;;2.83;0.80;;;;;;;8.37;50.28;99347.72;4998702;28;20046;-76
2023/11/10 05:16:35;;;;;;;2.67;0.75;;;;;;;8.38;50.25;99351.28;4993478;28;20054;-77
2023/11/10 05:19:05;;;;;;;2.83;0.90;;;;;;;8.40;50.43;99347.41;4987555;28;20042;-76
2023/11/10 05:21:33;;;;;;;2.53;0.70;;;;;;;8.38;50.49;99349.44;4991054;28;20082;-76
2023/11/10 05:24:01;;;;;;;1.60;0.75;;;;;;;8.38;50.13;99351.28;4993724;28;20045;-75
2023/11/10 05:26:30;;;;;;;2.10;0.80;;;;;;;8.39;50.37;99348.41;4992331;28;20056;-76
2023/11/10 05:28:58;;;;;;;1.98;1.00;;;;;;;8.37;50.03;99341.41;4991761;28;20060;-76
2023/11/10 05:31:26;;;;;;;1.80;0.98;;;;;;;8.37;50.43;99350.44;4991563;28;20085;-73
2023/11/10 05:33:57;;;;;;;2.38;0.80;;;;;;;8.39;49.97;99347.56;4991621;28;20050;-75
2023/11/10 05:36:25;;;;;;;3.72;0.90;;;;;;;8.38;50.16;99357.59;4992653;28;20690;-77
2023/11/10 05:38:53;;;;;;;1.65;0.80;;;;;;;8.39;50.32;99355.75;4991703;28;20046;-76
2023/11/10 05:41:21;;;;;;;2.30;0.70;;;;;;;8.39;50.25;99353.00;4995410;28;20049;-77
2023/11/10 05:43:49;;;;;;;2.90;1.20;;;;;;;8.39;49.89;99350.28;4993029;28;20052;-74
2023/11/10 05:46:17;;;;;;;3.50;0.95;;;;;;;8.38;49.97;99357.59;4997045;28;20053;-76
2023/11/10 05:48:45;;;;;;;4.47;1.00;;;;;;;8.39;49.97;99355.75;4996111;28;20468;-75
2023/11/10 05:51:14;;;;;;;3.03;0.98;;;;;;;8.41;49.75;99356.44;5017166;28;20480;-75
2023/11/10 05:53:43;;;;;;;3.28;0.98;;;;;;;8.39;50.07;99353.00;5000469;28;20049;-77
2023/11/10 05:56:11;;;;;;;2.20;1.02;;;;;;;8.39;49.89;99358.47;4996737;28;20065;-76
2023/11/10 05:58:39;;;;;;;2.42;1.00;;;;;;;8.39;50.25;99366.66;5000006;28;20069;-76
2023/11/10 06:01:07;;;;;;;1.83;0.93;;;;;;;8.39;50.36;99364.78;4999844;28;20065;-75
2023/11/10 06:03:37;;;;;;;3.08;0.90;;;;;;;8.40;50.21;99362.91;5015375;28;20519;-77
2023/11/10 06:06:06;;;;;;;2.65;1.10;;;;;;;8.41;50.38;99361.91;5001102;28;20046;-78
2023/11/10 06:08:36;;;;;;;2.03;0.88;;;;;;;8.41;49.74;99368.22;4996694;28;20059;-78
2023/11/10 06:11:04;;;;;;;3.42;1.00;;;;;;;8.40;49.98;99362.91;4994203;28;20057;-77
2023/11/10 06:13:32;;;;;;;2.97;1.00;;;;;;;8.40;50.28;99369.22;5002815;28;20127;-76
2023/11/10 06:16:06;;;;;;;1.98;0.82;;;;;;;8.41;49.78;99375.53;5000828;28;20046;-75
2023/11/10 06:18:35;;;;;;;3.08;1.02;;;;;;;8.39;49.92;99361.19;5001017;28;20543;-75
2023/11/10 06:21:04;;;;;;;1.90;0.90;;;;;;;8.40;49.86;99374.66;5004049;28;20030;-75
2023/11/10 06:23:33;;;;;;;3.10;0.90;;;;;;;8.39;49.97;99372.09;4997363;28;20145;-76
2023/11/10 06:26:02;;;;;;;2.60;1.05;;;;;;;8.40;49.88;99371.09;5000259;28;20046;-75
2023/11/10 06:28:30;;;;;;;2.22;0.90;;;;;;;8.39;49.68;99369.38;4999626;28;20054;-76
2023/11/10 06:30:58;;;;;;;2.63;0.80;;;;;;;8.40;49.74;99379.25;4994284;28;20539;-75
2023/11/10 06:33:27;;;;;;;2.53;1.00;;;;;;;8.39;50.03;99380.28;4995390;28;20970;-76
2023/11/10 06:35:55;;;;;;;1.55;0.68;;;;;;;8.40;50.01;99379.25;4994264;28;20761;-77
2023/11/10 06:38:23;;;;;;;1.90;1.00;;;;;;;8.38;49.94;99386.72;4994736;28;20050;-75
2023/11/10 06:40:51;;;;;;;2.65;0.80;;;;;;;8.40;50.11;99396.47;4995069;28;20082;-76
2023/11/10 06:43:20;;;;;;;4.65;0.98;;;;;;;8.42;49.63;99393.59;4992598;28;20568;-75
2023/11/10 06:45:48;;;;;;;1.92;0.85;;;;;;;8.40;49.65;99396.47;5000277;28;20046;-76
2023/11/10 06:48:17;;;;;;;1.23;0.60;;;;;;;8.41;49.50;99390.03;5001686;28;20077;-76
2023/11/10 06:50:45;;;;;;;1.83;0.65;;;;;;;8.41;50.11;99400.94;4996324;28;20058;-76
2023/11/10 06:53:14;;;;;;;2.47;1.23;;;;;;;8.42;49.61;99402.66;4994112;28;20141;-76
2023/11/10 06:55:42;;;;;;;1.38;0.77;;;;;;;8.41;49.72;99397.34;4990508;28;20125;-75
2023/11/10 06:58:10;;;;;;;3.45;0.70;;;;;;;8.41;49.66;99410.97;4997023;28;20054;-74
2023/11/10 07:00:40;;;;;;;2.17;0.90;;;;;;;8.42;49.45;99408.09;5018221;28;20505;-76
2023/11/10 07:03:12;;;;;;;2.10;0.63;;;;;;;8.40;49.70;99415.56;5021912;28;20045;-77
2023/11/10 07:05:41;;;;;;;1.85;0.75;;;;;;;8.39;49.94;99419.28;4999704;28;20058;-77
2023/11/10 07:08:10;;;;;;;1.80;0.80;;;;;;;8.40;49.49;99420.16;4996047;28;20054;-76
2023/11/10 07:10:41;;;;;;;1.65;0.80;;;;;;;8.40;49.65;99420.16;4994852;28;20057;-77
2023/11/10 07:13:13;;;;;;;3.15;0.82;;;;;;;8.38;49.34;99417.56;4998182;28;20159;-77
2023/11/10 07:15:43;;;;;;;3.05;0.75;;;;;;;8.42;49.23;99423.59;4995913;28;20069;-77
2023/11/10 07:18:11;;;;;;;2.55;0.80;;;;;;;8.41;49.52;99422.72;4996620;28;20050;-75
2023/11/10 07:20:43;;;;;;;2.10;1.08;;;;;;;8.41;49.79;99413.69;4993866;28;20050;-76
2023/11/10 07:23:11;;;;;;;2.50;0.98;;;;;;;8.39;49.47;99432.94;4992107;28;20612;-76
2023/11/10 07:25:43;;;;;;;2.65;1.10;;;;;;;8.43;49.33;99426.13;4994074;28;20065;-78
2023/11/10 07:28:12;;;;;;;2.53;0.90;;;;;;;8.39;49.44;99419.28;4993023;28;20576;-77
2023/11/10 07:30:40;;;;;;;2.33;1.00;;;;;;;8.39;49.60;99413.84;4995897;28;20100;-78
2023/11/10 07:33:10;;;;;;;1.25;0.60;;;;;;;8.41;49.44;99414.56;4996551;28;21075;-77
2023/11/10 07:35:39;;;;;;;1.83;0.70;;;;;;;8.40;49.47;99409.25;4996950;28;20050;-77
2023/11/10 07:38:07;;;;;;;2.17;0.82;;;;;;;8.41;49.15;99413.69;4996277;28;20109;-77
2023/11/10 07:40:36;;;;;;;1.98;0.80;;;;;;;8.41;49.39;99419.16;4996193;28;20413;-78
2023/11/10 07:43:05;;;;;;;2.10;0.75;;;;;;;8.40;48.86;99421.00;4999127;28;20072;-77
2023/11/10 07:45:34;;;;;;;2.47;0.90;;;;;;;8.40;49.03;99412.84;4998399;28;20053;-77
2023/11/10 07:48:05;;;;;;;2.20;0.82;;;;;;;8.40;49.24;99412.84;4997378;28;20054;-77
2023/11/10 07:50:34;;;;;;;2.30;0.82;;;;;;;8.40;48.98;99406.53;4996219;28;20097;-77
2023/11/10 07:53:02;;;;;;;1.67;0.90;;;;;;;8.39;49.17;99413.00;4988913;28;20049;-77
2023/11/10 07:55:30;;;;;;;1.58;0.90;;;;;;;8.39;49.08;99413.84;4987434;28;20068;-78
2023/11/10 07:57:58;;;;;;;2.03;0.77;;;;;;;8.39;49.14;99413.84;4988011;28;20088;-77
2023/11/10 08:00:26;;;;;;;2.60;0.75;;;;;;;8.40;49.09;99411.97;4988041;28;20403;-77
2023/11/10 08:02:54;;;;;;;3.63;0.80;;;;;;;8.40;49.38;99409.25;4987898;28;20592;-78
2023/11/10 08:05:23;;;;;;;2.90;0.70;;;;;;;8.40;49.39;99404.66;4987721;28;20521;-77
2023/11/10 08:07:55;;;;;;;2.50;0.73;;;;;;;8.42;49.34;99412.69;4988472;28;20469;-77
2023/11/10 08:10:23;;;;;;;2.15;0.73;;;;;;;8.40;49.32;99411.97;4985618;28;20514;-77
2023/11/10 08:12:53;;;;;;;2.38;1.00;;;;;;;8.41;49.39;99422.72;4988511;28;20373;-77
2023/11/10 08:15:21;;;;;;;2.10;0.90;;;;;;;8.43;49.52;99411.66;4986650;28;20077;-77
2023/11/10 08:17:49;;;;;;;1.80;0.90;;;;;;;8.43;49.29;99412.50;4988724;28;20056;-77
2023/11/10 08:20:18;;;;;;;2.95;0.70;;;;;;;8.45;49.35;99413.22;4986287;28;20060;-77
2023/11/10 08:22:46;;;;;;;2.17;0.68;;;;;;;8.46;49.19;99408.63;4987004;28;20555;-77
2023/11/10 08:25:16;;;;;;;2.30;0.75;;;;;;;8.49;48.76;99411.91;4986711;28;20081;-77
2023/11/10 08:27:44;;;;;;;2.70;1.17;;;;;;;8.49;49.29;99398.28;4989115;28;20136;-77
2023/11/10 08:30:13;;;;;;;2.28;1.00;;;;;;;8.51;48.95;99407.13;4988365;28;20050;-77
2023/11/10 08:32:42;;;;;;;4.75;0.90;;;;;;;8.51;48.94;99407.13;5010728;28;20205;-77
2023/11/10 08:35:10;;;;;;;2.95;0.95;;;;;;;8.54;49.25;99400.50;4985469;28;20053;-77
2023/11/10 08:37:38;;;;;;;1.45;0.70;;;;;;;8.53;49.03;99399.66;4990554;28;20054;-76
2023/11/10 08:40:09;;;;;;;1.92;0.77;;;;;;;8.55;49.18;99397.63;4994788;28;20583;-78
2023/11/10 08:42:41;;;;;;;2.42;0.90;;;;;;;8.57;48.95;99406.53;4992143;28;20048;-77
2023/11/10 08:45:14;;;;;;;2.80;0.90;;;;;;;8.57;49.40;99401.06;4987344;28;20041;-77
2023/11/10 08:47:43;;;;;;;2.65;0.80;;;;;;;8.59;49.23;99417.25;5001839;28;20059;-77
2023/11/10 08:50:11;;;;;;;3.15;1.00;;;;;;;8.61;49.15;99399.72;4987902;28;20045;-77
2023/11/10 08:52:41;;;;;;;4.15;1.15;;;;;;;8.63;49.58;99400.44;4980539;28;20046;-78
2023/11/10 08:55:11;;;;;;;2.55;0.90;;;;;;;8.67;49.17;99399.09;4988332;28;20061;-77
2023/11/10 08:57:41;;;;;;;2.33;0.82;;;;;;;8.70;49.19;99390.59;5002930;28;20111;-78
2023/11/10 09:00:13;;;;;;;3.63;1.05;;;;;;;8.73;49.02;99391.31;4993564;28;20526;-77
2023/11/10 09:02:41;;;;;;;3.57;0.80;;;;;;;8.73;49.64;99392.16;4989964;28;20656;-76
2023/11/10 09:05:10;;;;;;;2.60;0.80;;;;;;;8.78;49.21;99381.63;4985650;28;20058;-76
2023/11/10 09:07:40;;;;;;;2.72;0.82;;;;;;;8.82;49.53;99387.63;4988425;28;20715;-77
2023/11/10 09:10:10;;;;;;;1.92;0.68;;;;;;;8.88;49.62;99384.25;4987584;28;20583;-76
2023/11/10 09:12:42;;;;;;;2.25;0.73;;;;;;;8.94;49.18;99375.44;4991376;28;20058;-76
2023/11/10 09:15:12;;;;;;;0.90;0.65;;;;;;;8.97;49.33;99383.31;4990440;28;20073;-77
2023/11/10 09:17:41;;;;;;;1.98;0.60;;;;;;;9.04;49.30;99387.97;4991352;28;20177;-77
2023/11/10 09:20:09;;;;;;;2.10;0.88;;;;;;;9.11;49.51;99379.97;4991659;28;20050;-77
2023/11/10 09:22:38;;;;;;;4.35;0.95;;;;;;;9.17;49.62;99376.59;4991296;28;20517;-78
2023/11/10 09:25:09;;;;;;;1.67;0.70;;;;;;;9.26;49.08;99393.88;4995040;28;20074;-76
2023/11/10 09:27:37;;;;;;;2.60;1.00;;;;;;;9.32;49.33;99396.84;4991950;28;20130;-76
2023/11/10 09:30:08;;;;;;;1.15;0.65;;;;;;;9.42;48.53;99391.28;5013905;28;20049;-77
2023/11/10 09:32:37;;;;;;;1.88;0.60;;;;;;;9.46;49.22;99390.81;5015112;28;20546;-77
2023/11/10 09:35:06;;;;;;;3.60;0.82;;;;;;;9.55;48.83;99380.78;4993373;28;20093;-76
2023/11/10 09:37:35;;;;;;;3.72;0.98;;;;;;;9.62;49.11;99392.75;4990686;28;20050;-76
2023/11/10 09:40:03;;;;;;;3.00;0.73;;;;;;;9.71;48.69;99390.91;4991523;28;20145;-76
2023/11/10 09:42:32;;;;;;;1.80;0.80;;;;;;;9.78;48.50;99394.69;4990300;28;20058;-76
2023/11/10 09:45:01;;;;;;;2.28;0.77;;;;;;;9.87;48.48;99403.78;4994334;28;20054;-76
2023/11/10 09:47:31;;;;;;;2.40;0.77;;;;;;;9.93;48.45;99400.38;4988623;28;20099;-77
2023/11/10 09:49:59;;;;;;;2.25;0.85;;;;;;;9.98;47.86;99406.22;4991248;28;20557;-77
2023/11/10 09:52:31;;;;;;;3.17;0.90;;;;;;;10.02;47.59;99410.31;4993673;28;20313;-76
2023/11/10 09:54:59;;;;;;;3.85;0.90;;;;;;;10.02;47.52;99402.97;4990539;28;20061;-77
2023/11/10 09:57:29;;;;;;;1.42;0.70;;;;;;;10.07;47.58;99403.31;5003084;28;20136;-77
2023/11/10 09:59:59;;;;;;;3.08;0.73;;;;;;;10.08;47.47;99409.66;4998859;28;20062;-77
2023/11/10 10:02:27;;;;;;;2.38;0.80;;;;;;;10.09;47.03;99403.16;4999919;28;20121;-77
2023/11/10 10:04:57;;;;;;;2.95;0.80;;;;;;;10.10;46.96;99399.41;5001942;28;20088;-77
2023/11/10 10:07:25;;;;;;;2.38;1.00;;;;;;;10.08;46.85;99393.25;4994523;28;20678;-75
2023/11/10 10:09:53;;;;;;;2.30;0.70;;;;;;;10.08;46.55;99387.78;4994857;28;20053;-77
2023/11/10 10:12:24;;;;;;;2.70;0.93;;;;;;;10.07;46.74;99386.91;4994891;28;20053;-77
2023/11/10 10:14:56;;;;;;;1.63;0.70;;;;;;;10.08;45.83;99382.31;4997991;28;20144;-76
2023/11/10 10:17:31;;;;;;;1.92;0.70;;;;;;;10.05;45.28;99371.72;4996418;28;20565;-77
2023/11/10 10:20:13;;;;;;;2.90;0.60;;;;;;;10.05;45.63;99375.31;4994520;28;20080;-76
2023/11/10 10:22:45;;;;;;;1.90;0.80;;;;;;;10.04;45.58;99370.00;4993762;28;20054;-77
2023/11/10 10:25:14;;;;;;;2.38;0.90;;;;;;;9.99;46.61;99372.41;4994493;28;20054;-77
2023/11/10 10:27:42;;;;;;;2.42;0.90;;;;;;;10.00;46.49;99357.69;4993615;28;20054;-76
2023/11/10 10:30:11;;;;;;;2.65;0.73;;;;;;;9.99;46.47;99356.00;5013932;28;20042;-76
2023/11/10 10:32:39;;;;;;;1.40;0.70;;;;;;;9.97;45.94;99349.84;4997946;28;20666;-77
2023/11/10 10:35:11;;;;;;;2.38;0.85;;;;;;;9.97;45.80;99349.84;4999567;28;20524;-76
2023/11/10 10:37:41;;;;;;;2.40;0.60;;;;;;;9.94;46.20;99337.34;4997425;28;20065;-77
2023/11/10 10:40:11;;;;;;;1.52;0.68;;;;;;;9.96;46.50;99343.53;5017225;28;20038;-76
2023/11/10 10:42:43;;;;;;;3.30;0.85;;;;;;;9.98;46.00;99340.63;4996311;28;20042;-77
2023/11/10 10:45:12;;;;;;;3.33;0.80;;;;;;;9.98;46.20;99340.63;4995578;28;20046;-76
2023/11/10 10:47:41;;;;;;;1.23;0.52;;;;;;;9.99;46.07;99336.88;4994745;28;20042;-76
2023/11/10 10:50:11;;;;;;;3.38;0.90;;;;;;;10.01;46.11;99341.13;4990357;28;20070;-76
2023/11/10 10:52:42;;;;;;;2.38;0.68;;;;;;;10.01;46.26;99334.81;4990538;28;20949;-77
2023/11/10 10:55:14;;;;;;;2.08;0.77;;;;;;;10.00;46.05;99325.75;5014954;28;20054;-76
2023/11/10 10:57:43;;;;;;;2.80;0.80;;;;;;;10.00;46.01;99339.41;4992914;28;20398;-76
2023/11/10 11:00:16;;;;;;;2.05;0.70;;;;;;;10.01;45.59;99321.13;4991397;28;20073;-77
2023/11/10 11:02:49;;;;;;;3.92;0.77;;;;;;;10.01;45.24;99322.00;5001136;28;20081;-75
2023/11/10 11:05:23;;;;;;;;;;;;;;;9.73;45.52;99318.72;4990330;28;20050;-77
2023/11/10 11:08:03;;;;;;;2.92;0.60;;;;;;;9.95;44.97;99319.09;4990382;28;19930;-76
2023/11/10 11:10:48;;;;;;;1.90;0.52;;;;;;;9.97;44.25;99322.50;4993068;28;20094;-77
2023/11/10 11:13:41;;;;;;;1.67;0.80;;;;;;;9.93;44.38;99324.72;4993801;28;20425;-77
2023/11/10 11:16:36;;;;;;;4.05;0.90;;;;;;;9.92;44.86;99317.53;4994377;28;20501;-76
2023/11/10 11:19:23;;;;;;;3.08;0.93;;;;;;;9.89;44.33;99317.88;4995118;28;20053;-77
2023/11/10 11:21:53;;;;;;;1.60;0.75;;;;;;;9.88;45.17;99324.38;4992251;28;20069;-77
2023/11/10 11:24:22;;;;;;;1.83;0.75;;;;;;;9.85;45.55;99325.56;4995023;28;20050;-77
2023/11/10 11:27:00;;;;;;;1.98;0.65;;;;;;;9.87;44.51;99330.84;4993128;28;20049;-77
2023/11/10 11:29:35;;;;;;;1.70;0.82;;;;;;;9.85;44.66;99319.22;4994115;28;20053;-77
2023/11/10 11:32:05;;;;;;;1.88;0.80;;;;;;;9.81;45.20;99313.25;4990362;28;20164;-77
2023/11/10 11:34:33;;;;;;;3.75;1.08;;;;;;;9.80;45.72;99311.56;4993401;28;20161;-77
2023/11/10 11:37:05;;;;;;;3.10;0.93;;;;;;;9.81;44.75;99310.53;4991060;28;20173;-76
2023/11/10 11:39:34;;;;;;;2.05;0.80;;;;;;;9.77;45.33;99313.75;4996596;28;20050;-77
2023/11/10 11:42:06;;;;;;;2.97;0.80;;;;;;;9.79;44.63;99314.44;5015292;28;20045;-76
2023/11/10 11:44:35;;;;;;;2.27;0.80;;;;;;;9.75;45.64;99313.91;5017662;28;20062;-77
2023/11/10 11:47:09;;;;;;;3.38;0.90;;;;;;;9.76;44.66;99312.88;4995161;28;20768;-77
2023/11/10 11:49:38;;;;;;;4.93;1.35;;;;;;;9.73;45.40;99324.16;4994542;28;20053;-77
2023/11/10 11:52:11;;;;;;;3.22;0.80;;;;;;;9.75;45.07;99315.78;4994199;28;20101;-77